createdAt,value
2018-12-04T00:01:53.092Z,100.00
2018-12-04T00:04:23.444Z,100.00
2018-12-04T00:06:53.385Z,100.00
2018-12-04T00:09:23.281Z,100.00
2018-12-04T00:11:53.197Z,100.00
2018-12-04T00:14:23.063Z,100.00
2018-12-04T00:16:53.060Z,100.00
2018-12-04T00:19:23.036Z,100.00
2018-12-04T00:21:52.999Z,100.00
2018-12-04T00:24:22.860Z,100.00
2018-12-04T00:26:52.796Z,100.00
2018-12-04T00:29:22.738Z,100.00
2018-12-04T00:31:52.580Z,100.00
2018-12-04T00:34:22.399Z,100.00
2018-12-04T00:36:52.224Z,100.00
2018-12-04T00:39:22.081Z,100.00
2018-12-04T00:41:52.012Z,100.00
2018-12-04T00:44:21.840Z,100.00
2018-12-04T00:46:52.424Z,100.00
2018-12-04T00:49:22.204Z,100.00
2018-12-04T00:51:52.009Z,100.00
2018-12-04T00:54:21.813Z,100.00
2018-12-04T00:56:51.664Z,100.00
2018-12-04T00:59:21.517Z,100.00
2018-12-04T01:01:51.520Z,100.00
2018-12-04T01:04:21.408Z,100.00
2018-12-04T01:06:51.308Z,100.00
2018-12-04T01:09:21.197Z,100.00
2018-12-04T01:11:51.184Z,100.00
2018-12-04T01:14:21.049Z,100.00
2018-12-04T01:16:50.925Z,100.00
2018-12-04T01:19:20.817Z,100.00
2018-12-04T01:21:50.769Z,100.00
2018-12-04T01:24:20.597Z,100.00
2018-12-04T01:26:50.516Z,100.00
2018-12-04T01:29:20.280Z,100.00
2018-12-04T01:31:50.111Z,100.00
2018-12-04T01:34:19.953Z,100.00
2018-12-04T01:36:49.963Z,100.00
2018-12-04T01:39:20.085Z,100.00
2018-12-04T01:41:49.920Z,100.00
2018-12-04T01:44:19.918Z,100.00
2018-12-04T01:46:49.804Z,100.00
2018-12-04T01:49:19.536Z,100.00
2018-12-04T01:51:49.422Z,100.00
2018-12-04T01:54:19.276Z,100.00
2018-12-04T01:56:49.101Z,100.00
2018-12-04T01:59:19.005Z,100.00
2018-12-04T02:01:48.852Z,100.00
2018-12-04T02:04:18.725Z,100.00
2018-12-04T02:06:48.648Z,100.00
2018-12-04T02:09:18.578Z,100.00
2018-12-04T02:11:48.491Z,100.00
2018-12-04T02:14:18.384Z,100.00
2018-12-04T02:16:48.220Z,100.00
2018-12-04T02:19:18.108Z,100.00
2018-12-04T02:21:47.936Z,100.00
2018-12-04T02:24:17.842Z,100.00
2018-12-04T02:26:47.623Z,100.00
2018-12-04T02:29:17.473Z,100.00
2018-12-04T02:31:47.409Z,100.00
2018-12-04T02:34:17.300Z,100.00
2018-12-04T02:36:47.244Z,100.00
2018-12-04T02:39:17.126Z,100.00
2018-12-04T02:41:46.965Z,100.00
2018-12-04T02:44:16.872Z,100.00
2018-12-04T02:46:46.745Z,100.00
2018-12-04T02:49:16.584Z,100.00
2018-12-04T02:51:46.373Z,100.00
2018-12-04T02:54:16.174Z,100.00
2018-12-04T02:56:46.048Z,100.00
2018-12-04T02:59:15.944Z,100.00
2018-12-04T03:01:45.716Z,100.00
2018-12-04T03:04:15.582Z,100.00
2018-12-04T03:06:45.610Z,100.00
2018-12-04T03:09:15.473Z,100.00
2018-12-04T03:11:45.485Z,100.00
2018-12-04T03:14:15.429Z,100.00
2018-12-04T03:16:45.261Z,100.00
2018-12-04T03:19:15.195Z,100.00
2018-12-04T03:21:45.177Z,100.00
2018-12-04T03:24:15.007Z,100.00
2018-12-04T03:26:44.917Z,100.00
2018-12-04T03:29:14.819Z,100.00
2018-12-04T03:31:44.754Z,100.00
2018-12-04T03:34:14.568Z,100.00
2018-12-04T03:36:44.443Z,100.00
2018-12-04T03:39:14.279Z,100.00
2018-12-04T03:41:44.912Z,100.00
2018-12-04T03:44:14.756Z,100.00
2018-12-04T03:46:44.757Z,100.00
2018-12-04T03:49:14.764Z,100.00
2018-12-04T03:51:44.708Z,100.00
2018-12-04T03:54:14.629Z,100.00
2018-12-04T03:56:44.642Z,100.00
2018-12-04T03:59:14.701Z,100.00
2018-12-04T04:01:44.552Z,100.00
2018-12-04T04:04:14.461Z,100.00
2018-12-04T04:06:44.407Z,100.00
2018-12-04T04:09:14.304Z,100.00
2018-12-04T04:11:44.356Z,100.00
2018-12-04T04:14:14.238Z,100.00
2018-12-04T04:16:44.109Z,100.00
2018-12-04T04:19:13.990Z,100.00
2018-12-04T04:21:43.860Z,100.00
2018-12-04T04:24:13.765Z,100.00
2018-12-04T04:26:43.652Z,100.00
2018-12-04T04:29:13.637Z,100.00
2018-12-04T04:31:43.647Z,100.00
2018-12-04T04:34:13.738Z,100.00
2018-12-04T04:36:43.540Z,100.00
2018-12-04T04:39:13.651Z,100.00
2018-12-04T04:41:43.593Z,100.00
2018-12-04T04:44:13.518Z,100.00
2018-12-04T04:46:43.519Z,100.00
2018-12-04T04:49:13.297Z,100.00
2018-12-04T04:51:43.401Z,100.00
2018-12-04T04:54:15.473Z,100.00
2018-12-04T04:56:45.355Z,100.00
2018-12-04T04:59:15.283Z,100.00
2018-12-04T05:01:45.201Z,100.00
2018-12-04T05:04:15.790Z,100.00
2018-12-04T05:06:45.813Z,100.00
2018-12-04T05:09:15.860Z,100.00
2018-12-04T05:11:45.786Z,100.00
2018-12-04T05:14:15.692Z,100.00
2018-12-04T05:16:45.613Z,100.00
2018-12-04T05:19:18.630Z,100.00
2018-12-04T05:21:49.761Z,100.00
2018-12-04T05:24:19.601Z,100.00
2018-12-04T05:26:49.533Z,100.00
2018-12-04T05:29:19.413Z,100.00
2018-12-04T05:31:49.411Z,100.00
2018-12-04T05:34:19.296Z,100.00
2018-12-04T05:36:49.274Z,100.00
2018-12-04T05:39:19.149Z,100.00
2018-12-04T05:41:49.034Z,100.00
2018-12-04T05:44:18.921Z,100.00
2018-12-04T05:46:48.753Z,100.00
2018-12-04T05:49:18.662Z,100.00
2018-12-04T05:51:48.589Z,100.00
2018-12-04T05:54:19.625Z,100.00
2018-12-04T05:56:49.396Z,100.00
2018-12-04T05:59:19.388Z,100.00
2018-12-04T06:01:49.222Z,100.00
2018-12-04T06:04:19.129Z,100.00
2018-12-04T06:06:48.992Z,100.00
2018-12-04T06:09:18.909Z,100.00
2018-12-04T06:11:49.437Z,100.00
2018-12-04T06:14:19.289Z,100.00
2018-12-04T06:16:49.171Z,100.00
2018-12-04T06:19:19.001Z,100.00
2018-12-04T06:21:49.017Z,100.00
2018-12-04T06:24:19.074Z,100.00
2018-12-04T06:26:48.897Z,100.00
2018-12-04T06:29:18.807Z,100.00
2018-12-04T06:31:49.302Z,100.00
2018-12-04T06:34:19.203Z,100.00
2018-12-04T06:36:49.102Z,100.00
2018-12-04T06:39:19.013Z,100.00
2018-12-04T06:41:48.876Z,100.00
2018-12-04T06:44:18.995Z,100.00
2018-12-04T06:46:48.851Z,100.00
2018-12-04T06:49:18.708Z,100.00
2018-12-04T06:51:48.588Z,100.00
2018-12-04T06:54:20.534Z,100.00
2018-12-04T06:56:50.370Z,100.00
2018-12-04T06:59:20.389Z,100.00
2018-12-04T07:01:51.109Z,100.00
2018-12-04T07:04:21.140Z,100.00
2018-12-04T07:06:52.336Z,100.00
2018-12-04T07:09:22.189Z,100.00
2018-12-04T07:11:52.695Z,100.00
2018-12-04T07:14:23.062Z,100.00
2018-12-04T07:16:53.061Z,100.00
2018-12-04T07:19:24.289Z,100.00
2018-12-04T07:21:54.208Z,100.00
2018-12-04T07:24:25.378Z,100.00
2018-12-04T07:26:55.666Z,100.00
2018-12-04T07:29:26.280Z,100.00
2018-12-04T07:31:56.101Z,100.00
2018-12-04T07:34:26.593Z,100.00
2018-12-04T07:36:57.409Z,100.00
2018-12-04T07:39:27.693Z,100.00
2018-12-04T07:41:58.606Z,100.00
2018-12-04T07:47:05.871Z,100.00
2018-12-04T07:49:37.236Z,100.00
2018-12-04T07:52:07.613Z,100.00
2018-12-04T07:54:37.529Z,100.00
2018-12-04T07:57:07.357Z,100.00
2018-12-04T07:59:37.205Z,100.00
2018-12-04T08:02:07.296Z,100.00
2018-12-04T08:04:37.224Z,100.00
2018-12-04T08:07:07.037Z,100.00
2018-12-04T08:09:37.108Z,100.00
2018-12-04T08:12:07.113Z,100.00
2018-12-04T08:14:37.973Z,100.00
2018-12-04T08:17:07.976Z,100.00
2018-12-04T08:19:37.844Z,100.00
2018-12-04T08:22:07.780Z,100.00
2018-12-04T08:24:37.740Z,100.00
2018-12-04T08:27:08.504Z,100.00
2018-12-04T08:29:38.389Z,100.00
2018-12-04T08:32:39.477Z,100.00
2018-12-04T08:35:10.647Z,100.00
2018-12-04T08:37:40.427Z,100.00
2018-12-04T08:40:10.260Z,100.00
2018-12-04T08:42:40.981Z,100.00
2018-12-04T08:45:10.740Z,100.00
2018-12-04T08:47:40.505Z,100.00
2018-12-04T08:50:10.332Z,100.00
2018-12-04T08:52:40.132Z,100.00
2018-12-04T08:55:09.985Z,100.00
2018-12-04T08:57:39.745Z,100.00
2018-12-04T09:00:09.882Z,100.00
2018-12-04T09:02:40.609Z,100.00
2018-12-04T09:05:10.462Z,100.00
2018-12-04T09:07:40.438Z,100.00
2018-12-04T09:10:10.404Z,100.00
2018-12-04T09:12:40.164Z,100.00
2018-12-04T09:15:10.001Z,100.00
2018-12-04T09:17:40.811Z,100.00
2018-12-04T09:20:10.702Z,100.00
2018-12-04T09:22:41.702Z,100.00
2018-12-04T09:25:11.664Z,100.00
2018-12-04T09:27:41.520Z,100.00
2018-12-04T09:30:12.417Z,100.00
2018-12-04T09:32:42.240Z,100.00
2018-12-04T09:35:12.076Z,100.00
2018-12-04T09:37:41.881Z,100.00
2018-12-04T09:40:11.713Z,100.00
2018-12-04T09:42:41.496Z,100.00
2018-12-04T09:45:11.461Z,100.00
2018-12-04T09:47:41.229Z,100.00
2018-12-04T09:50:11.076Z,100.00
2018-12-04T09:52:40.854Z,100.00
2018-12-04T09:55:10.708Z,100.00
2018-12-04T09:57:40.472Z,100.00
2018-12-04T10:00:10.674Z,100.00
2018-12-04T10:02:40.528Z,100.00
2018-12-04T10:05:10.372Z,100.00
2018-12-04T10:07:40.140Z,100.00
2018-12-04T10:10:10.179Z,100.00
2018-12-04T10:12:39.973Z,100.00
2018-12-04T10:15:09.833Z,100.00
2018-12-04T10:17:39.592Z,100.00
2018-12-04T10:20:12.914Z,100.00
2018-12-04T10:22:43.460Z,98.89
2018-12-04T10:25:13.541Z,97.05
2018-12-04T10:27:43.507Z,95.46
2018-12-04T10:30:13.709Z,96.28
2018-12-04T10:32:45.638Z,93.68
2018-12-04T10:35:15.578Z,92.50
2018-12-04T10:37:45.488Z,92.23
2018-12-04T10:40:15.523Z,93.39
2018-12-04T10:42:45.568Z,90.89
2018-12-04T10:45:16.963Z,90.99
2018-12-04T10:47:46.920Z,89.55
2018-12-04T10:50:16.849Z,86.02
2018-12-04T10:52:46.959Z,87.40
2018-12-04T10:55:17.183Z,86.54
2018-12-04T10:57:47.118Z,89.63
2018-12-04T11:00:22.323Z,87.79
2018-12-04T11:02:54.607Z,89.42
2018-12-04T11:05:24.633Z,87.91
2018-12-04T11:07:54.875Z,86.09
2018-12-04T11:10:24.945Z,85.73
2018-12-04T11:12:55.919Z,83.29
2018-12-04T11:15:26.053Z,83.01
2018-12-04T11:17:56.148Z,83.76
2018-12-04T11:20:25.929Z,85.61
2018-12-04T11:22:55.753Z,85.17
2018-12-04T11:25:25.582Z,85.61
2018-12-04T11:27:55.401Z,84.34
2018-12-04T11:30:25.201Z,82.82
2018-12-04T11:32:55.034Z,76.88
2018-12-04T11:35:24.844Z,77.76
2018-12-04T11:37:54.670Z,76.17
2018-12-04T11:40:24.445Z,73.28
2018-12-04T11:42:54.254Z,65.46
2018-12-04T11:45:24.056Z,65.64
2018-12-04T11:47:53.857Z,58.78
2018-12-04T11:50:23.678Z,54.31
2018-12-04T11:52:53.549Z,55.09
2018-12-04T11:55:23.435Z,56.63
2018-12-04T11:57:53.219Z,55.01
2018-12-04T12:00:26.372Z,57.33
2018-12-04T12:02:56.192Z,67.04
2018-12-04T12:05:26.069Z,72.89
2018-12-04T12:07:57.874Z,76.64
2018-12-04T12:10:27.946Z,79.54
2018-12-04T12:12:57.821Z,81.40
2018-12-04T12:15:27.666Z,80.12
2018-12-04T12:17:57.446Z,81.17
2018-12-04T12:20:27.330Z,78.47
2018-12-04T12:22:57.152Z,78.25
2018-12-04T12:25:27.217Z,78.08
2018-12-04T12:28:00.080Z,78.84
2018-12-04T12:30:30.488Z,81.09
2018-12-04T12:33:00.517Z,81.90
2018-12-04T12:35:30.673Z,83.22
2018-12-04T12:38:01.207Z,86.66
2018-12-04T12:40:31.410Z,94.87
2018-12-04T12:43:01.748Z,96.34
2018-12-04T12:45:31.913Z,100.00
2018-12-04T12:48:02.149Z,100.00
2018-12-04T12:50:32.508Z,100.00
2018-12-04T12:53:02.757Z,100.00
2018-12-04T12:55:33.571Z,100.00
2018-12-04T12:58:03.887Z,100.00
2018-12-04T13:00:34.242Z,100.00
2018-12-04T13:03:04.464Z,100.00
2018-12-04T13:05:34.408Z,100.00
2018-12-04T13:08:04.612Z,100.00
2018-12-04T13:10:35.488Z,100.00
2018-12-04T13:13:05.704Z,100.00
2018-12-04T13:15:35.746Z,100.00
2018-12-04T13:18:05.661Z,97.49
2018-12-04T13:20:36.002Z,96.59
2018-12-04T13:23:05.914Z,96.37
2018-12-04T13:25:35.782Z,96.42
2018-12-04T13:28:05.873Z,98.29
2018-12-04T13:30:35.957Z,97.25
2018-12-04T13:33:05.926Z,98.34
2018-12-04T13:35:35.905Z,100.00
2018-12-04T13:38:06.453Z,100.00
2018-12-04T13:40:36.358Z,100.00
2018-12-04T13:43:06.628Z,100.00
2018-12-04T13:45:36.975Z,100.00
2018-12-04T13:48:07.234Z,100.00
2018-12-04T13:50:37.079Z,100.00
2018-12-04T13:53:07.205Z,100.00
2018-12-04T13:55:37.148Z,95.49
2018-12-04T13:58:07.303Z,95.62
2018-12-04T14:00:37.370Z,98.00
2018-12-04T14:03:07.466Z,97.07
2018-12-04T14:05:37.544Z,96.32
2018-12-04T14:08:07.649Z,93.57
2018-12-04T14:10:37.933Z,87.06
2018-12-04T14:13:08.068Z,77.74
2018-12-04T14:15:38.121Z,82.27
2018-12-04T14:18:08.257Z,86.29
2018-12-04T14:20:38.420Z,90.13
2018-12-04T14:23:08.669Z,95.21
2018-12-04T14:25:38.712Z,95.60
2018-12-04T14:28:09.014Z,98.34
2018-12-04T14:30:39.126Z,98.62
2018-12-04T14:33:09.172Z,98.89
2018-12-04T14:35:38.963Z,99.64
2018-12-04T14:38:08.888Z,100.00
2018-12-04T14:40:38.811Z,100.00
2018-12-04T14:43:08.886Z,100.00
2018-12-04T14:45:38.725Z,100.00
2018-12-04T14:48:08.502Z,100.00
2018-12-04T14:50:38.342Z,100.00
2018-12-04T14:53:08.392Z,100.00
2018-12-04T14:55:38.192Z,100.00
2018-12-04T14:58:08.062Z,100.00
2018-12-04T15:00:37.943Z,100.00
2018-12-04T15:03:08.070Z,100.00
2018-12-04T15:05:38.047Z,100.00
2018-12-04T15:08:07.997Z,100.00
2018-12-04T15:10:37.820Z,100.00
2018-12-04T15:13:07.681Z,100.00
2018-12-04T15:15:37.604Z,100.00
2018-12-04T15:18:07.477Z,100.00
2018-12-04T15:20:37.530Z,100.00
2018-12-04T15:23:07.488Z,100.00
2018-12-04T15:25:37.269Z,100.00
2018-12-04T15:28:07.113Z,100.00
2018-12-04T15:30:36.905Z,100.00
2018-12-04T15:33:06.881Z,100.00
2018-12-04T15:35:36.912Z,100.00
2018-12-04T15:38:06.772Z,100.00
2018-12-04T15:40:36.599Z,100.00
2018-12-04T15:43:06.407Z,100.00
2018-12-04T15:45:36.365Z,100.00
2018-12-04T15:48:06.192Z,100.00
2018-12-04T15:50:36.012Z,100.00
2018-12-04T15:53:05.984Z,100.00
2018-12-04T15:55:35.845Z,100.00
2018-12-04T15:58:05.661Z,100.00
2018-12-04T16:00:35.808Z,100.00
2018-12-04T16:03:05.601Z,100.00
2018-12-04T16:05:35.392Z,100.00
2018-12-04T16:08:05.353Z,100.00
2018-12-04T16:10:35.175Z,100.00
2018-12-04T16:13:05.055Z,100.00
2018-12-04T16:15:34.905Z,100.00
2018-12-04T16:18:04.801Z,100.00
2018-12-04T16:20:34.745Z,100.00
2018-12-04T16:23:04.692Z,100.00
2018-12-04T16:25:34.506Z,100.00
2018-12-04T16:28:04.515Z,100.00
2018-12-04T16:30:34.339Z,100.00
2018-12-04T16:33:04.565Z,100.00
2018-12-04T16:35:34.460Z,100.00
2018-12-04T16:38:04.296Z,100.00
2018-12-04T16:40:34.105Z,100.00
2018-12-04T16:43:03.953Z,100.00
2018-12-04T16:45:33.742Z,100.00
2018-12-04T16:48:03.554Z,100.00
2018-12-04T16:50:33.348Z,100.00
2018-12-04T16:53:03.206Z,100.00
2018-12-04T16:55:33.052Z,100.00
2018-12-04T16:58:02.945Z,100.00
2018-12-04T17:00:32.977Z,100.00
2018-12-04T17:03:02.984Z,100.00
2018-12-04T17:05:32.744Z,100.00
2018-12-04T17:08:02.669Z,100.00
2018-12-04T17:10:32.495Z,100.00
2018-12-04T17:13:02.317Z,100.00
2018-12-04T17:15:32.196Z,100.00
2018-12-04T17:18:02.032Z,100.00
2018-12-04T17:20:31.832Z,100.00
2018-12-04T17:23:01.744Z,100.00
2018-12-04T17:25:31.533Z,100.00
2018-12-04T17:28:01.707Z,100.00
2018-12-04T17:30:31.661Z,100.00
2018-12-04T17:33:01.749Z,100.00
2018-12-04T17:35:31.591Z,100.00
2018-12-04T17:38:01.470Z,100.00
2018-12-04T17:40:31.450Z,100.00
2018-12-04T17:43:01.317Z,100.00
2018-12-04T17:45:32.100Z,100.00
2018-12-04T17:48:01.864Z,100.00
2018-12-04T17:50:31.635Z,100.00
2018-12-04T17:53:01.490Z,100.00
2018-12-04T17:55:31.255Z,100.00
2018-12-04T17:58:03.176Z,100.00
2018-12-04T18:00:33.049Z,100.00
2018-12-04T18:03:03.941Z,100.00
2018-12-04T18:05:33.869Z,100.00
2018-12-04T18:08:03.729Z,100.00
2018-12-04T18:10:33.520Z,100.00
2018-12-04T18:13:03.376Z,100.00
2018-12-04T18:15:35.228Z,100.00
2018-12-04T18:18:05.121Z,100.00
2018-12-04T18:20:34.908Z,100.00
2018-12-04T18:23:04.903Z,100.00
2018-12-04T18:25:34.802Z,100.00
2018-12-04T18:28:04.836Z,100.00
2018-12-04T18:30:34.918Z,100.00
2018-12-04T18:33:05.008Z,100.00
2018-12-04T18:35:34.938Z,100.00
2018-12-04T18:38:04.859Z,100.00
2018-12-04T18:40:34.681Z,100.00
2018-12-04T18:43:04.618Z,100.00
2018-12-04T18:45:35.284Z,100.00
2018-12-04T18:48:05.169Z,100.00
2018-12-04T18:50:35.083Z,100.00
2018-12-04T18:53:05.077Z,100.00
2018-12-04T18:55:35.014Z,100.00
2018-12-04T18:58:05.012Z,100.00
2018-12-04T19:00:35.052Z,100.00
2018-12-04T19:03:04.998Z,100.00
2018-12-04T19:05:35.800Z,100.00
2018-12-04T19:08:05.793Z,100.00
2018-12-04T19:10:35.624Z,100.00
2018-12-04T19:13:05.839Z,100.00
2018-12-04T19:15:35.727Z,100.00
2018-12-04T19:18:05.730Z,100.00
2018-12-04T19:20:35.572Z,100.00
2018-12-04T19:23:05.391Z,100.00
2018-12-04T19:25:35.275Z,100.00
2018-12-04T19:28:05.053Z,100.00
2018-12-04T19:30:34.996Z,100.00
2018-12-04T19:33:04.806Z,100.00
2018-12-04T19:35:34.761Z,100.00
2018-12-04T19:38:04.895Z,100.00
2018-12-04T19:40:35.092Z,100.00
2018-12-04T19:43:04.952Z,100.00
2018-12-04T19:45:35.953Z,100.00
2018-12-04T19:48:05.892Z,100.00
2018-12-04T19:50:36.200Z,100.00
2018-12-04T19:53:06.005Z,100.00
2018-12-04T19:55:35.815Z,100.00
2018-12-04T19:58:05.693Z,100.00
2018-12-04T20:00:35.604Z,100.00
2018-12-04T20:03:05.452Z,100.00
2018-12-04T20:05:35.327Z,100.00
2018-12-04T20:08:05.420Z,100.00
2018-12-04T20:10:35.345Z,100.00
2018-12-04T20:13:05.336Z,100.00
2018-12-04T20:15:35.331Z,100.00
2018-12-04T20:18:05.418Z,100.00
2018-12-04T20:20:35.495Z,100.00
2018-12-04T20:23:05.335Z,100.00
2018-12-04T20:25:35.188Z,100.00
2018-12-04T20:28:05.091Z,100.00
2018-12-04T20:30:34.988Z,100.00
2018-12-04T20:33:05.078Z,100.00
2018-12-04T20:35:34.865Z,100.00
2018-12-04T20:38:05.357Z,100.00
2018-12-04T20:40:35.291Z,100.00
2018-12-04T20:43:05.505Z,100.00
2018-12-04T20:45:35.424Z,100.00
2018-12-04T20:48:07.605Z,100.00
2018-12-04T20:50:37.792Z,100.00
2018-12-04T20:53:07.681Z,100.00
2018-12-04T20:55:37.855Z,100.00
2018-12-04T20:58:07.970Z,100.00
2018-12-04T21:00:37.908Z,100.00
2018-12-04T21:03:07.810Z,100.00
2018-12-04T21:05:37.709Z,100.00
2018-12-04T21:08:07.574Z,100.00
2018-12-04T21:10:38.491Z,100.00
2018-12-04T21:13:14.338Z,100.00
2018-12-04T21:15:40.327Z,100.00
2018-12-04T21:18:10.157Z,100.00
2018-12-04T21:20:40.029Z,100.00
2018-12-04T21:23:10.072Z,100.00
2018-12-04T21:25:39.911Z,100.00
2018-12-04T21:28:14.929Z,100.00
2018-12-04T21:30:49.928Z,100.00
2018-12-04T21:33:25.079Z,100.00
2018-12-04T21:36:00.870Z,100.00
2018-12-04T21:38:35.962Z,100.00
2018-12-04T21:41:09.293Z,100.00
2018-12-04T21:43:45.401Z,100.00
2018-12-04T21:46:20.462Z,100.00
2018-12-04T21:48:50.332Z,100.00
2018-12-04T21:51:20.380Z,100.00
2018-12-04T21:53:50.244Z,100.00
2018-12-04T21:56:20.080Z,100.00
2018-12-04T21:58:49.890Z,100.00
2018-12-04T22:01:19.724Z,100.00
2018-12-04T22:03:49.568Z,100.00
2018-12-04T22:06:19.442Z,100.00
2018-12-04T22:08:49.204Z,100.00
2018-12-04T22:11:19.262Z,100.00
2018-12-04T22:13:49.038Z,100.00
2018-12-04T22:16:18.960Z,100.00
2018-12-04T22:18:48.785Z,100.00
2018-12-04T22:21:18.669Z,100.00
2018-12-04T22:23:48.526Z,100.00
2018-12-04T22:26:18.642Z,100.00
2018-12-04T22:28:48.502Z,100.00
2018-12-04T22:31:18.553Z,100.00
2018-12-04T22:33:48.438Z,100.00
2018-12-04T22:36:18.617Z,100.00
2018-12-04T22:38:48.601Z,100.00
2018-12-04T22:41:18.592Z,100.00
2018-12-04T22:43:48.577Z,100.00
2018-12-04T22:46:18.650Z,100.00
2018-12-04T22:48:48.591Z,100.00
2018-12-04T22:51:18.660Z,100.00
2018-12-04T22:53:48.525Z,100.00
2018-12-04T22:56:18.816Z,100.00
2018-12-04T22:58:48.837Z,100.00
2018-12-04T23:01:29.752Z,100.00
2018-12-04T23:03:59.639Z,100.00
2018-12-04T23:06:29.587Z,100.00
2018-12-04T23:08:59.492Z,100.00
2018-12-04T23:11:29.284Z,100.00
2018-12-04T23:14:00.176Z,100.00
2018-12-04T23:16:30.007Z,100.00
2018-12-04T23:18:59.982Z,100.00
2018-12-04T23:21:29.896Z,100.00
2018-12-04T23:23:59.721Z,100.00
2018-12-04T23:26:29.568Z,100.00
2018-12-04T23:28:59.653Z,100.00
2018-12-04T23:31:29.569Z,100.00
2018-12-04T23:33:59.480Z,100.00
2018-12-04T23:36:29.312Z,100.00
2018-12-04T23:38:59.185Z,100.00
2018-12-04T23:41:29.062Z,100.00
2018-12-04T23:43:58.947Z,100.00
2018-12-04T23:46:29.563Z,100.00
2018-12-04T23:48:59.576Z,100.00
2018-12-04T23:51:29.457Z,100.00
2018-12-04T23:53:59.288Z,100.00
2018-12-04T23:56:29.180Z,100.00
2018-12-04T23:58:59.008Z,100.00
